sensor_id;sensor_type;location;lat;lon;timestamp;temperature;humidity
6581;DHT22;3324;50.796;7.228;2023-01-13T00:00:33;12.20;99.90
6581;DHT22;3324;50.796;7.228;2023-01-13T00:02:59;12.20;99.90
6581;DHT22;3324;50.796;7.228;2023-01-13T00:05:24;12.20;99.90
6581;DHT22;3324;50.796;7.228;2023-01-13T00:07:51;12.20;99.90
6581;DHT22;3324;50.796;7.228;2023-01-13T00:10:17;12.10;99.90
6581;DHT22;3324;50.796;7.228;2023-01-13T00:12:42;12.10;99.90
6581;DHT22;3324;50.796;7.228;2023-01-13T00:15:09;12.20;99.90
6581;DHT22;3324;50.796;7.228;2023-01-13T00:17:35;12.20;99.90
6581;DHT22;3324;50.796;7.228;2023-01-13T00:20:01;12.20;99.90
6581;DHT22;3324;50.796;7.228;2023-01-13T00:22:27;12.20;99.90
6581;DHT22;3324;50.796;7.228;2023-01-13T00:24:52;12.20;99.90
6581;DHT22;3324;50.796;7.228;2023-01-13T00:27:18;12.10;99.90
6581;DHT22;3324;50.796;7.228;2023-01-13T00:29:43;12.20;99.90
6581;DHT22;3324;50.796;7.228;2023-01-13T00:32:09;12.20;99.90
6581;DHT22;3324;50.796;7.228;2023-01-13T00:34:34;12.20;99.90
6581;DHT22;3324;50.796;7.228;2023-01-13T00:37:00;12.20;99.90
6581;DHT22;3324;50.796;7.228;2023-01-13T00:39:26;12.20;99.90
6581;DHT22;3324;50.796;7.228;2023-01-13T00:41:52;12.10;99.90
6581;DHT22;3324;50.796;7.228;2023-01-13T00:44:36;12.10;99.90
6581;DHT22;3324;50.796;7.228;2023-01-13T00:47:01;12.10;99.90
6581;DHT22;3324;50.796;7.228;2023-01-13T00:49:27;12.10;99.90
6581;DHT22;3324;50.796;7.228;2023-01-13T00:51:52;12.10;99.90
6581;DHT22;3324;50.796;7.228;2023-01-13T00:54:18;12.10;99.90
6581;DHT22;3324;50.796;7.228;2023-01-13T00:56:43;12.10;99.90
6581;DHT22;3324;50.796;7.228;2023-01-13T00:59:10;12.10;99.90
6581;DHT22;3324;50.796;7.228;2023-01-13T01:01:36;12.10;99.90
6581;DHT22;3324;50.796;7.228;2023-01-13T01:04:02;12.10;99.90
6581;DHT22;3324;50.796;7.228;2023-01-13T01:06:27;12.10;99.90
6581;DHT22;3324;50.796;7.228;2023-01-13T01:08:54;12.00;99.90
6581;DHT22;3324;50.796;7.228;2023-01-13T01:11:22;12.00;99.90
6581;DHT22;3324;50.796;7.228;2023-01-13T01:13:48;12.00;99.90
6581;DHT22;3324;50.796;7.228;2023-01-13T01:16:17;12.00;99.90
6581;DHT22;3324;50.796;7.228;2023-01-13T01:18:45;11.90;99.90
6581;DHT22;3324;50.796;7.228;2023-01-13T01:21:12;11.80;99.90
6581;DHT22;3324;50.796;7.228;2023-01-13T01:23:39;11.80;99.90
6581;DHT22;3324;50.796;7.228;2023-01-13T01:26:16;11.70;99.90
6581;DHT22;3324;50.796;7.228;2023-01-13T01:28:43;11.70;99.90
6581;DHT22;3324;50.796;7.228;2023-01-13T01:31:12;11.60;99.90
6581;DHT22;3324;50.796;7.228;2023-01-13T01:33:38;11.60;99.90
6581;DHT22;3324;50.796;7.228;2023-01-13T01:36:05;11.60;99.90
6581;DHT22;3324;50.796;7.228;2023-01-13T01:38:31;11.40;99.90
6581;DHT22;3324;50.796;7.228;2023-01-13T01:40:57;11.30;99.90
6581;DHT22;3324;50.796;7.228;2023-01-13T01:43:53;11.20;99.90
6581;DHT22;3324;50.796;7.228;2023-01-13T01:46:34;11.10;99.90
6581;DHT22;3324;50.796;7.228;2023-01-13T01:51:49;10.90;99.90
6581;DHT22;3324;50.796;7.228;2023-01-13T01:54:28;10.90;99.90
6581;DHT22;3324;50.796;7.228;2023-01-13T01:56:55;10.90;99.90
6581;DHT22;3324;50.796;7.228;2023-01-13T01:59:21;10.90;99.90
6581;DHT22;3324;50.796;7.228;2023-01-13T02:01:47;10.80;99.90
6581;DHT22;3324;50.796;7.228;2023-01-13T02:04:27;10.80;99.90
6581;DHT22;3324;50.796;7.228;2023-01-13T02:06:54;10.80;99.90
6581;DHT22;3324;50.796;7.228;2023-01-13T02:09:21;10.80;99.90
6581;DHT22;3324;50.796;7.228;2023-01-13T02:11:48;10.80;99.90
6581;DHT22;3324;50.796;7.228;2023-01-13T02:14:33;10.80;99.90
6581;DHT22;3324;50.796;7.228;2023-01-13T02:31:50;10.80;99.90
6581;DHT22;3324;50.796;7.228;2023-01-13T02:34:39;10.70;99.90
6581;DHT22;3324;50.796;7.228;2023-01-13T02:37:07;10.70;99.90
6581;DHT22;3324;50.796;7.228;2023-01-13T02:39:58;10.70;99.90
6581;DHT22;3324;50.796;7.228;2023-01-13T02:43:00;10.70;99.90
6581;DHT22;3324;50.796;7.228;2023-01-13T02:46:04;10.60;99.90
6581;DHT22;3324;50.796;7.228;2023-01-13T02:48:34;10.60;99.90
6581;DHT22;3324;50.796;7.228;2023-01-13T02:51:08;10.70;99.90
6581;DHT22;3324;50.796;7.228;2023-01-13T02:53:48;10.60;99.90
6581;DHT22;3324;50.796;7.228;2023-01-13T02:56:16;10.60;99.90
6581;DHT22;3324;50.796;7.228;2023-01-13T02:58:44;10.50;99.90
6581;DHT22;3324;50.796;7.228;2023-01-13T03:01:10;10.50;99.90
6581;DHT22;3324;50.796;7.228;2023-01-13T03:03:36;10.50;99.90
6581;DHT22;3324;50.796;7.228;2023-01-13T03:06:22;10.50;99.90
6581;DHT22;3324;50.796;7.228;2023-01-13T03:08:59;10.50;99.90
6581;DHT22;3324;50.796;7.228;2023-01-13T03:11:38;10.50;99.90
6581;DHT22;3324;50.796;7.228;2023-01-13T03:14:29;10.50;99.90
6581;DHT22;3324;50.796;7.228;2023-01-13T03:17:16;10.50;99.90
6581;DHT22;3324;50.796;7.228;2023-01-13T03:19:56;10.40;99.90
6581;DHT22;3324;50.796;7.228;2023-01-13T03:22:44;10.40;99.90
6581;DHT22;3324;50.796;7.228;2023-01-13T03:25:21;10.50;99.90
6581;DHT22;3324;50.796;7.228;2023-01-13T03:27:57;10.60;99.90
6581;DHT22;3324;50.796;7.228;2023-01-13T03:33:05;10.60;99.90
6581;DHT22;3324;50.796;7.228;2023-01-13T03:35:39;10.50;99.90
6581;DHT22;3324;50.796;7.228;2023-01-13T03:38:10;10.50;99.90
6581;DHT22;3324;50.796;7.228;2023-01-13T03:40:48;10.40;99.90
6581;DHT22;3324;50.796;7.228;2023-01-13T03:43:19;10.40;99.90
6581;DHT22;3324;50.796;7.228;2023-01-13T03:46:17;10.40;99.90
6581;DHT22;3324;50.796;7.228;2023-01-13T03:48:44;10.40;99.90
6581;DHT22;3324;50.796;7.228;2023-01-13T03:51:14;10.30;99.90
6581;DHT22;3324;50.796;7.228;2023-01-13T03:53:53;10.20;99.90
6581;DHT22;3324;50.796;7.228;2023-01-13T03:56:28;10.20;99.90
6581;DHT22;3324;50.796;7.228;2023-01-13T03:58:56;10.20;99.90
6581;DHT22;3324;50.796;7.228;2023-01-13T04:01:43;10.20;99.90
6581;DHT22;3324;50.796;7.228;2023-01-13T04:04:17;10.30;99.90
6581;DHT22;3324;50.796;7.228;2023-01-13T04:06:53;10.30;99.90
6581;DHT22;3324;50.796;7.228;2023-01-13T04:09:46;10.30;99.90
6581;DHT22;3324;50.796;7.228;2023-01-13T04:12:17;10.40;99.90
6581;DHT22;3324;50.796;7.228;2023-01-13T04:14:45;10.30;99.90
6581;DHT22;3324;50.796;7.228;2023-01-13T04:17:11;10.30;99.90
6581;DHT22;3324;50.796;7.228;2023-01-13T04:19:37;10.20;99.90
6581;DHT22;3324;50.796;7.228;2023-01-13T04:22:02;10.20;99.90
6581;DHT22;3324;50.796;7.228;2023-01-13T04:24:28;10.10;99.90
6581;DHT22;3324;50.796;7.228;2023-01-13T04:26:53;10.20;99.90
6581;DHT22;3324;50.796;7.228;2023-01-13T04:29:21;10.20;99.90
6581;DHT22;3324;50.796;7.228;2023-01-13T04:31:47;10.20;99.90
6581;DHT22;3324;50.796;7.228;2023-01-13T04:34:12;10.20;99.90
6581;DHT22;3324;50.796;7.228;2023-01-13T04:36:38;10.20;99.90
6581;DHT22;3324;50.796;7.228;2023-01-13T04:39:03;10.10;99.90
6581;DHT22;3324;50.796;7.228;2023-01-13T04:41:29;10.10;99.90
6581;DHT22;3324;50.796;7.228;2023-01-13T04:44:17;10.20;99.90
6581;DHT22;3324;50.796;7.228;2023-01-13T04:46:43;10.10;99.90
6581;DHT22;3324;50.796;7.228;2023-01-13T04:49:08;10.10;99.90
6581;DHT22;3324;50.796;7.228;2023-01-13T04:51:34;10.00;99.90
6581;DHT22;3324;50.796;7.228;2023-01-13T04:53:59;10.00;99.90
6581;DHT22;3324;50.796;7.228;2023-01-13T04:56:25;10.00;99.90
6581;DHT22;3324;50.796;7.228;2023-01-13T04:58:50;10.00;99.90
6581;DHT22;3324;50.796;7.228;2023-01-13T05:01:16;10.00;99.90
6581;DHT22;3324;50.796;7.228;2023-01-13T05:03:42;10.00;99.90
6581;DHT22;3324;50.796;7.228;2023-01-13T05:06:07;10.00;99.90
6581;DHT22;3324;50.796;7.228;2023-01-13T05:08:33;10.00;99.90
6581;DHT22;3324;50.796;7.228;2023-01-13T05:10:59;10.00;99.90
6581;DHT22;3324;50.796;7.228;2023-01-13T05:13:25;10.00;99.90
6581;DHT22;3324;50.796;7.228;2023-01-13T05:16:09;10.00;99.90
6581;DHT22;3324;50.796;7.228;2023-01-13T05:18:54;9.90;99.90
6581;DHT22;3324;50.796;7.228;2023-01-13T05:21:20;9.90;99.90
6581;DHT22;3324;50.796;7.228;2023-01-13T05:24:04;9.80;99.90
6581;DHT22;3324;50.796;7.228;2023-01-13T05:26:48;9.80;99.90
6581;DHT22;3324;50.796;7.228;2023-01-13T05:29:14;9.90;99.90
6581;DHT22;3324;50.796;7.228;2023-01-13T05:31:39;9.80;99.90
6581;DHT22;3324;50.796;7.228;2023-01-13T05:34:05;9.80;99.90
6581;DHT22;3324;50.796;7.228;2023-01-13T05:36:30;9.80;99.90
6581;DHT22;3324;50.796;7.228;2023-01-13T05:38:56;9.80;99.90
6581;DHT22;3324;50.796;7.228;2023-01-13T05:41:21;9.80;99.90
6581;DHT22;3324;50.796;7.228;2023-01-13T05:44:05;9.70;99.90
6581;DHT22;3324;50.796;7.228;2023-01-13T05:46:31;9.70;99.90
6581;DHT22;3324;50.796;7.228;2023-01-13T05:48:56;9.70;99.90
6581;DHT22;3324;50.796;7.228;2023-01-13T05:51:24;9.60;99.90
6581;DHT22;3324;50.796;7.228;2023-01-13T05:53:50;9.60;99.90
6581;DHT22;3324;50.796;7.228;2023-01-13T05:56:16;9.60;99.90
6581;DHT22;3324;50.796;7.228;2023-01-13T05:58:42;9.60;99.90
6581;DHT22;3324;50.796;7.228;2023-01-13T06:01:08;9.60;99.90
6581;DHT22;3324;50.796;7.228;2023-01-13T06:03:34;9.70;99.90
6581;DHT22;3324;50.796;7.228;2023-01-13T06:06:00;9.70;99.90
6581;DHT22;3324;50.796;7.228;2023-01-13T06:08:29;9.70;99.90
6581;DHT22;3324;50.796;7.228;2023-01-13T06:10:54;9.70;99.90
6581;DHT22;3324;50.796;7.228;2023-01-13T06:13:20;9.70;99.90
6581;DHT22;3324;50.796;7.228;2023-01-13T06:15:46;9.60;99.90
6581;DHT22;3324;50.796;7.228;2023-01-13T06:18:12;9.60;99.90
6581;DHT22;3324;50.796;7.228;2023-01-13T06:20:37;9.60;99.90
6581;DHT22;3324;50.796;7.228;2023-01-13T06:23:03;9.70;99.90
6581;DHT22;3324;50.796;7.228;2023-01-13T06:25:49;9.70;99.90
6581;DHT22;3324;50.796;7.228;2023-01-13T06:28:16;9.70;99.90
6581;DHT22;3324;50.796;7.228;2023-01-13T06:30:45;9.60;99.90
6581;DHT22;3324;50.796;7.228;2023-01-13T06:33:14;9.60;99.90
6581;DHT22;3324;50.796;7.228;2023-01-13T06:35:45;9.60;99.90
6581;DHT22;3324;50.796;7.228;2023-01-13T06:38:14;9.60;99.90
6581;DHT22;3324;50.796;7.228;2023-01-13T06:40:42;9.60;99.90
6581;DHT22;3324;50.796;7.228;2023-01-13T06:43:08;9.60;99.90
6581;DHT22;3324;50.796;7.228;2023-01-13T06:45:44;9.60;99.90
6581;DHT22;3324;50.796;7.228;2023-01-13T06:48:10;9.60;99.90
6581;DHT22;3324;50.796;7.228;2023-01-13T06:50:36;9.60;99.90
6581;DHT22;3324;50.796;7.228;2023-01-13T06:53:02;9.70;99.90
6581;DHT22;3324;50.796;7.228;2023-01-13T06:55:27;9.70;99.90
6581;DHT22;3324;50.796;7.228;2023-01-13T06:57:54;9.70;99.90
6581;DHT22;3324;50.796;7.228;2023-01-13T07:00:21;9.70;99.90
6581;DHT22;3324;50.796;7.228;2023-01-13T07:02:47;9.60;99.90
6581;DHT22;3324;50.796;7.228;2023-01-13T07:05:13;9.70;99.90
6581;DHT22;3324;50.796;7.228;2023-01-13T07:07:39;9.70;99.90
6581;DHT22;3324;50.796;7.228;2023-01-13T07:10:06;9.70;99.90
6581;DHT22;3324;50.796;7.228;2023-01-13T07:12:34;9.70;99.90
6581;DHT22;3324;50.796;7.228;2023-01-13T07:15:20;9.70;99.90
6581;DHT22;3324;50.796;7.228;2023-01-13T07:17:46;9.70;99.90
6581;DHT22;3324;50.796;7.228;2023-01-13T07:20:11;9.70;99.90
6581;DHT22;3324;50.796;7.228;2023-01-13T07:22:37;9.70;99.90
6581;DHT22;3324;50.796;7.228;2023-01-13T07:25:03;9.70;99.90
6581;DHT22;3324;50.796;7.228;2023-01-13T07:27:28;9.70;99.90
6581;DHT22;3324;50.796;7.228;2023-01-13T07:29:54;9.70;99.90
6581;DHT22;3324;50.796;7.228;2023-01-13T07:32:20;9.60;99.90
6581;DHT22;3324;50.796;7.228;2023-01-13T07:34:45;9.60;99.90
6581;DHT22;3324;50.796;7.228;2023-01-13T07:37:11;9.60;99.90
6581;DHT22;3324;50.796;7.228;2023-01-13T07:39:36;9.60;99.90
6581;DHT22;3324;50.796;7.228;2023-01-13T07:42:02;9.60;99.90
6581;DHT22;3324;50.796;7.228;2023-01-13T07:44:46;9.70;99.90
6581;DHT22;3324;50.796;7.228;2023-01-13T07:47:11;9.70;99.90
6581;DHT22;3324;50.796;7.228;2023-01-13T07:49:37;9.70;99.90
6581;DHT22;3324;50.796;7.228;2023-01-13T07:52:03;9.60;99.90
6581;DHT22;3324;50.796;7.228;2023-01-13T07:54:29;9.70;99.90
6581;DHT22;3324;50.796;7.228;2023-01-13T07:56:55;9.70;99.90
6581;DHT22;3324;50.796;7.228;2023-01-13T07:59:21;9.70;99.90
6581;DHT22;3324;50.796;7.228;2023-01-13T08:01:47;9.70;99.90
6581;DHT22;3324;50.796;7.228;2023-01-13T08:04:12;9.70;99.90
6581;DHT22;3324;50.796;7.228;2023-01-13T08:06:39;9.70;99.90
6581;DHT22;3324;50.796;7.228;2023-01-13T08:09:05;9.60;99.90
6581;DHT22;3324;50.796;7.228;2023-01-13T08:11:31;9.50;99.90
6581;DHT22;3324;50.796;7.228;2023-01-13T08:13:56;9.40;99.90
6581;DHT22;3324;50.796;7.228;2023-01-13T08:16:22;9.30;99.90
6581;DHT22;3324;50.796;7.228;2023-01-13T08:18:48;9.20;99.90
6581;DHT22;3324;50.796;7.228;2023-01-13T08:21:14;9.20;99.90
6581;DHT22;3324;50.796;7.228;2023-01-13T08:23:42;9.20;99.90
6581;DHT22;3324;50.796;7.228;2023-01-13T08:26:10;9.20;99.90
6581;DHT22;3324;50.796;7.228;2023-01-13T08:28:36;9.20;99.90
6581;DHT22;3324;50.796;7.228;2023-01-13T08:31:07;9.10;99.90
6581;DHT22;3324;50.796;7.228;2023-01-13T08:33:34;9.10;99.90
6581;DHT22;3324;50.796;7.228;2023-01-13T08:36:05;9.10;99.90
6581;DHT22;3324;50.796;7.228;2023-01-13T08:38:31;9.10;99.90
6581;DHT22;3324;50.796;7.228;2023-01-13T08:40:57;9.10;99.90
6581;DHT22;3324;50.796;7.228;2023-01-13T08:43:23;9.00;99.90
6581;DHT22;3324;50.796;7.228;2023-01-13T08:46:00;9.00;99.90
6581;DHT22;3324;50.796;7.228;2023-01-13T08:48:27;9.10;99.90
6581;DHT22;3324;50.796;7.228;2023-01-13T08:50:53;9.10;99.90
6581;DHT22;3324;50.796;7.228;2023-01-13T08:53:19;9.20;99.90
6581;DHT22;3324;50.796;7.228;2023-01-13T08:55:45;9.20;99.90
6581;DHT22;3324;50.796;7.228;2023-01-13T08:58:11;9.10;99.90
6581;DHT22;3324;50.796;7.228;2023-01-13T09:00:37;9.20;99.90
6581;DHT22;3324;50.796;7.228;2023-01-13T09:03:02;9.30;99.90
6581;DHT22;3324;50.796;7.228;2023-01-13T09:05:29;9.40;99.90
6581;DHT22;3324;50.796;7.228;2023-01-13T09:07:55;9.40;99.90
6581;DHT22;3324;50.796;7.228;2023-01-13T09:10:20;9.50;99.90
6581;DHT22;3324;50.796;7.228;2023-01-13T09:12:46;9.50;99.90
6581;DHT22;3324;50.796;7.228;2023-01-13T09:15:30;9.70;99.90
6581;DHT22;3324;50.796;7.228;2023-01-13T09:17:55;9.80;99.90
6581;DHT22;3324;50.796;7.228;2023-01-13T09:20:21;9.90;99.90
6581;DHT22;3324;50.796;7.228;2023-01-13T09:22:47;9.90;99.90
6581;DHT22;3324;50.796;7.228;2023-01-13T09:25:12;9.90;99.90
6581;DHT22;3324;50.796;7.228;2023-01-13T09:27:38;9.80;99.90
6581;DHT22;3324;50.796;7.228;2023-01-13T09:30:04;9.90;99.90
6581;DHT22;3324;50.796;7.228;2023-01-13T09:32:30;9.90;99.90
6581;DHT22;3324;50.796;7.228;2023-01-13T09:34:56;9.90;99.90
6581;DHT22;3324;50.796;7.228;2023-01-13T09:37:30;9.90;99.90
6581;DHT22;3324;50.796;7.228;2023-01-13T09:39:56;10.00;99.90
6581;DHT22;3324;50.796;7.228;2023-01-13T09:42:37;10.00;99.90
6581;DHT22;3324;50.796;7.228;2023-01-13T09:45:39;10.00;99.90
6581;DHT22;3324;50.796;7.228;2023-01-13T09:53:26;9.90;99.90
6581;DHT22;3324;50.796;7.228;2023-01-13T09:55:53;10.00;99.90
6581;DHT22;3324;50.796;7.228;2023-01-13T09:58:19;10.10;99.90
6581;DHT22;3324;50.796;7.228;2023-01-13T10:01:09;10.20;99.90
6581;DHT22;3324;50.796;7.228;2023-01-13T10:03:41;10.30;99.90
6581;DHT22;3324;50.796;7.228;2023-01-13T10:06:27;10.30;99.90
6581;DHT22;3324;50.796;7.228;2023-01-13T10:08:54;10.40;99.90
6581;DHT22;3324;50.796;7.228;2023-01-13T10:11:25;10.40;99.90
6581;DHT22;3324;50.796;7.228;2023-01-13T10:14:23;10.50;99.90
6581;DHT22;3324;50.796;7.228;2023-01-13T10:19:25;10.50;99.90
6581;DHT22;3324;50.796;7.228;2023-01-13T10:24:43;10.60;99.90
6581;DHT22;3324;50.796;7.228;2023-01-13T10:27:22;10.80;99.90
6581;DHT22;3324;50.796;7.228;2023-01-13T10:29:50;10.90;99.90
6581;DHT22;3324;50.796;7.228;2023-01-13T10:32:15;11.00;99.90
6581;DHT22;3324;50.796;7.228;2023-01-13T10:34:46;11.00;99.90
6581;DHT22;3324;50.796;7.228;2023-01-13T10:37:26;10.90;99.90
6581;DHT22;3324;50.796;7.228;2023-01-13T10:39:56;10.80;99.90
6581;DHT22;3324;50.796;7.228;2023-01-13T10:42:22;10.80;99.90
6581;DHT22;3324;50.796;7.228;2023-01-13T10:44:50;10.80;99.90
6581;DHT22;3324;50.796;7.228;2023-01-13T10:47:27;10.80;99.90
6581;DHT22;3324;50.796;7.228;2023-01-13T10:50:09;10.80;99.90
6581;DHT22;3324;50.796;7.228;2023-01-13T10:52:58;10.70;99.90
6581;DHT22;3324;50.796;7.228;2023-01-13T10:55:31;10.70;99.90
6581;DHT22;3324;50.796;7.228;2023-01-13T10:58:12;10.70;99.90
6581;DHT22;3324;50.796;7.228;2023-01-13T11:00:38;10.60;99.90
6581;DHT22;3324;50.796;7.228;2023-01-13T11:05:37;10.80;99.90
6581;DHT22;3324;50.796;7.228;2023-01-13T11:08:02;10.80;99.90
6581;DHT22;3324;50.796;7.228;2023-01-13T11:10:30;10.80;99.90
6581;DHT22;3324;50.796;7.228;2023-01-13T11:13:03;10.80;99.90
6581;DHT22;3324;50.796;7.228;2023-01-13T11:20:41;10.80;99.90
6581;DHT22;3324;50.796;7.228;2023-01-13T11:23:30;10.80;99.90
6581;DHT22;3324;50.796;7.228;2023-01-13T11:26:16;10.90;99.90
6581;DHT22;3324;50.796;7.228;2023-01-13T11:28:56;10.90;99.90
6581;DHT22;3324;50.796;7.228;2023-01-13T11:31:47;10.90;99.90
6581;DHT22;3324;50.796;7.228;2023-01-13T11:34:27;10.90;99.90
6581;DHT22;3324;50.796;7.228;2023-01-13T11:36:56;11.00;99.90
6581;DHT22;3324;50.796;7.228;2023-01-13T11:42:28;11.00;99.90
6581;DHT22;3324;50.796;7.228;2023-01-13T11:47:31;11.10;99.90
6581;DHT22;3324;50.796;7.228;2023-01-13T11:49:58;11.10;99.90
6581;DHT22;3324;50.796;7.228;2023-01-13T11:52:53;11.10;99.90
6581;DHT22;3324;50.796;7.228;2023-01-13T12:00:42;11.00;99.90
6581;DHT22;3324;50.796;7.228;2023-01-13T12:03:23;11.10;99.90
6581;DHT22;3324;50.796;7.228;2023-01-13T12:14:19;11.20;99.90
6581;DHT22;3324;50.796;7.228;2023-01-13T12:16:49;11.20;99.90
6581;DHT22;3324;50.796;7.228;2023-01-13T12:19:23;11.20;99.90
6581;DHT22;3324;50.796;7.228;2023-01-13T12:22:07;11.10;99.90
6581;DHT22;3324;50.796;7.228;2023-01-13T12:24:54;11.00;99.90
6581;DHT22;3324;50.796;7.228;2023-01-13T12:27:45;10.70;99.90
6581;DHT22;3324;50.796;7.228;2023-01-13T12:30:43;10.50;99.90
6581;DHT22;3324;50.796;7.228;2023-01-13T12:36:36;10.30;99.90
6581;DHT22;3324;50.796;7.228;2023-01-13T12:47:33;10.10;99.90
6581;DHT22;3324;50.796;7.228;2023-01-13T12:52:47;10.20;99.90
6581;DHT22;3324;50.796;7.228;2023-01-13T12:55:33;10.20;99.90
6581;DHT22;3324;50.796;7.228;2023-01-13T12:58:14;10.20;99.90
6581;DHT22;3324;50.796;7.228;2023-01-13T13:06:02;10.30;99.90
6581;DHT22;3324;50.796;7.228;2023-01-13T13:08:50;10.30;99.90
6581;DHT22;3324;50.796;7.228;2023-01-13T13:11:34;10.30;99.90
6581;DHT22;3324;50.796;7.228;2023-01-13T13:19:54;10.30;99.90
6581;DHT22;3324;50.796;7.228;2023-01-13T13:27:25;10.30;99.90
6581;DHT22;3324;50.796;7.228;2023-01-13T13:29:59;10.30;99.90
6581;DHT22;3324;50.796;7.228;2023-01-13T13:40:49;10.10;99.90
6581;DHT22;3324;50.796;7.228;2023-01-13T13:43:40;10.00;99.90
6581;DHT22;3324;50.796;7.228;2023-01-13T13:46:30;10.00;99.90
6581;DHT22;3324;50.796;7.228;2023-01-13T13:49:20;9.90;99.90
6581;DHT22;3324;50.796;7.228;2023-01-13T13:51:59;9.90;99.90
6581;DHT22;3324;50.796;7.228;2023-01-13T13:54:26;9.90;99.90
6581;DHT22;3324;50.796;7.228;2023-01-13T13:56:52;9.90;99.90
6581;DHT22;3324;50.796;7.228;2023-01-13T13:59:26;9.90;99.90
6581;DHT22;3324;50.796;7.228;2023-01-13T14:01:56;9.90;99.90
6581;DHT22;3324;50.796;7.228;2023-01-13T14:04:30;9.90;99.90
6581;DHT22;3324;50.796;7.228;2023-01-13T14:06:59;9.90;99.90
6581;DHT22;3324;50.796;7.228;2023-01-13T14:09:27;9.90;99.90
6581;DHT22;3324;50.796;7.228;2023-01-13T14:11:58;9.90;99.90
6581;DHT22;3324;50.796;7.228;2023-01-13T14:14:24;9.90;99.90
6581;DHT22;3324;50.796;7.228;2023-01-13T14:16:50;9.90;99.90
6581;DHT22;3324;50.796;7.228;2023-01-13T14:19:28;9.80;99.90
6581;DHT22;3324;50.796;7.228;2023-01-13T14:21:54;9.80;99.90
6581;DHT22;3324;50.796;7.228;2023-01-13T14:24:19;9.80;99.90
6581;DHT22;3324;50.796;7.228;2023-01-13T14:26:47;9.80;99.90
6581;DHT22;3324;50.796;7.228;2023-01-13T14:29:19;9.80;99.90
6581;DHT22;3324;50.796;7.228;2023-01-13T14:31:47;9.70;99.90
6581;DHT22;3324;50.796;7.228;2023-01-13T14:34:13;9.70;99.90
6581;DHT22;3324;50.796;7.228;2023-01-13T14:36:39;9.70;99.90
6581;DHT22;3324;50.796;7.228;2023-01-13T14:41:44;9.60;99.90
6581;DHT22;3324;50.796;7.228;2023-01-13T14:44:24;9.60;99.90
6581;DHT22;3324;50.796;7.228;2023-01-13T14:46:52;9.60;99.90
6581;DHT22;3324;50.796;7.228;2023-01-13T14:51:52;9.50;99.90
6581;DHT22;3324;50.796;7.228;2023-01-13T14:54:38;9.50;99.90
6581;DHT22;3324;50.796;7.228;2023-01-13T14:57:25;9.40;99.90
6581;DHT22;3324;50.796;7.228;2023-01-13T15:08:47;9.20;99.90
6581;DHT22;3324;50.796;7.228;2023-01-13T15:10:50;9.20;99.90
6581;DHT22;3324;50.796;7.228;2023-01-13T15:16:04;9.20;99.90
6581;DHT22;3324;50.796;7.228;2023-01-13T15:18:31;9.20;99.90
6581;DHT22;3324;50.796;7.228;2023-01-13T15:20:57;9.20;99.90
6581;DHT22;3324;50.796;7.228;2023-01-13T15:23:22;9.20;99.90
6581;DHT22;3324;50.796;7.228;2023-01-13T15:25:48;9.10;99.90
6581;DHT22;3324;50.796;7.228;2023-01-13T15:28:20;9.20;99.90
6581;DHT22;3324;50.796;7.228;2023-01-13T15:30:47;9.20;99.90
6581;DHT22;3324;50.796;7.228;2023-01-13T15:33:13;9.20;99.90
6581;DHT22;3324;50.796;7.228;2023-01-13T15:35:43;9.20;99.90
6581;DHT22;3324;50.796;7.228;2023-01-13T15:38:14;9.10;99.90
6581;DHT22;3324;50.796;7.228;2023-01-13T15:40:40;9.20;99.90
6581;DHT22;3324;50.796;7.228;2023-01-13T15:43:14;9.20;99.90
6581;DHT22;3324;50.796;7.228;2023-01-13T15:45:59;9.20;99.90
6581;DHT22;3324;50.796;7.228;2023-01-13T15:48:44;9.20;99.90
6581;DHT22;3324;50.796;7.228;2023-01-13T15:51:11;9.20;99.90
6581;DHT22;3324;50.796;7.228;2023-01-13T15:53:40;9.20;99.90
6581;DHT22;3324;50.796;7.228;2023-01-13T15:56:19;9.20;99.90
6581;DHT22;3324;50.796;7.228;2023-01-13T15:58:45;9.20;99.90
6581;DHT22;3324;50.796;7.228;2023-01-13T16:01:11;9.20;99.90
6581;DHT22;3324;50.796;7.228;2023-01-13T16:03:37;9.20;99.90
6581;DHT22;3324;50.796;7.228;2023-01-13T16:06:12;9.20;99.90
6581;DHT22;3324;50.796;7.228;2023-01-13T16:08:39;9.20;99.90
6581;DHT22;3324;50.796;7.228;2023-01-13T16:11:05;9.20;99.90
6581;DHT22;3324;50.796;7.228;2023-01-13T16:13:30;9.30;99.90
6581;DHT22;3324;50.796;7.228;2023-01-13T16:15:57;9.20;99.90
6581;DHT22;3324;50.796;7.228;2023-01-13T16:18:23;9.40;99.90
6581;DHT22;3324;50.796;7.228;2023-01-13T16:20:49;9.40;99.90
6581;DHT22;3324;50.796;7.228;2023-01-13T16:23:18;9.40;99.90
6581;DHT22;3324;50.796;7.228;2023-01-13T16:25:44;9.40;99.90
6581;DHT22;3324;50.796;7.228;2023-01-13T16:28:19;9.40;99.90
6581;DHT22;3324;50.796;7.228;2023-01-13T16:30:45;9.50;99.90
6581;DHT22;3324;50.796;7.228;2023-01-13T16:33:10;9.50;99.90
6581;DHT22;3324;50.796;7.228;2023-01-13T16:35:36;9.50;99.90
6581;DHT22;3324;50.796;7.228;2023-01-13T16:38:02;9.50;99.90
6581;DHT22;3324;50.796;7.228;2023-01-13T16:40:30;9.50;99.90
6581;DHT22;3324;50.796;7.228;2023-01-13T16:42:56;9.50;99.90
6581;DHT22;3324;50.796;7.228;2023-01-13T16:45:23;9.50;99.90
6581;DHT22;3324;50.796;7.228;2023-01-13T16:47:48;9.50;99.90
6581;DHT22;3324;50.796;7.228;2023-01-13T16:52:46;9.50;99.90
6581;DHT22;3324;50.796;7.228;2023-01-13T16:55:12;9.50;99.90
6581;DHT22;3324;50.796;7.228;2023-01-13T16:57:37;9.50;99.90
6581;DHT22;3324;50.796;7.228;2023-01-13T17:00:03;9.50;99.90
6581;DHT22;3324;50.796;7.228;2023-01-13T17:02:29;9.50;99.90
6581;DHT22;3324;50.796;7.228;2023-01-13T17:04:55;9.50;99.90
6581;DHT22;3324;50.796;7.228;2023-01-13T17:07:20;9.50;99.90
6581;DHT22;3324;50.796;7.228;2023-01-13T17:09:46;9.50;99.90
6581;DHT22;3324;50.796;7.228;2023-01-13T17:12:11;9.40;99.90
6581;DHT22;3324;50.796;7.228;2023-01-13T17:14:37;9.40;99.90
6581;DHT22;3324;50.796;7.228;2023-01-13T17:17:03;9.40;99.90
6581;DHT22;3324;50.796;7.228;2023-01-13T17:19:29;9.30;99.90
6581;DHT22;3324;50.796;7.228;2023-01-13T17:21:54;9.30;99.90
6581;DHT22;3324;50.796;7.228;2023-01-13T17:24:20;9.30;99.90
6581;DHT22;3324;50.796;7.228;2023-01-13T17:26:48;9.20;99.90
6581;DHT22;3324;50.796;7.228;2023-01-13T17:29:20;9.20;99.90
6581;DHT22;3324;50.796;7.228;2023-01-13T17:31:47;9.20;99.90
6581;DHT22;3324;50.796;7.228;2023-01-13T17:34:13;9.20;99.90
6581;DHT22;3324;50.796;7.228;2023-01-13T17:36:39;9.20;99.90
6581;DHT22;3324;50.796;7.228;2023-01-13T17:39:05;9.20;99.90
6581;DHT22;3324;50.796;7.228;2023-01-13T17:41:31;9.20;99.90
6581;DHT22;3324;50.796;7.228;2023-01-13T17:43:56;9.20;99.90
6581;DHT22;3324;50.796;7.228;2023-01-13T17:46:22;9.20;99.90
6581;DHT22;3324;50.796;7.228;2023-01-13T17:48:49;9.20;99.90
6581;DHT22;3324;50.796;7.228;2023-01-13T17:51:16;9.20;99.90
6581;DHT22;3324;50.796;7.228;2023-01-13T17:53:43;9.30;99.90
6581;DHT22;3324;50.796;7.228;2023-01-13T17:56:11;9.20;99.90
6581;DHT22;3324;50.796;7.228;2023-01-13T17:58:37;9.20;99.90
6581;DHT22;3324;50.796;7.228;2023-01-13T18:01:12;9.30;99.90
6581;DHT22;3324;50.796;7.228;2023-01-13T18:03:38;9.30;99.90
6581;DHT22;3324;50.796;7.228;2023-01-13T18:06:06;9.40;99.90
6581;DHT22;3324;50.796;7.228;2023-01-13T18:08:31;9.50;99.90
6581;DHT22;3324;50.796;7.228;2023-01-13T18:10:57;9.50;99.90
6581;DHT22;3324;50.796;7.228;2023-01-13T18:13:23;9.50;99.90
6581;DHT22;3324;50.796;7.228;2023-01-13T18:15:58;9.50;99.90
6581;DHT22;3324;50.796;7.228;2023-01-13T18:18:25;9.50;99.90
6581;DHT22;3324;50.796;7.228;2023-01-13T18:20:50;9.50;99.90
6581;DHT22;3324;50.796;7.228;2023-01-13T18:23:34;9.50;99.90
6581;DHT22;3324;50.796;7.228;2023-01-13T18:26:19;9.60;99.90